Time;durP1;ratioP1;P1;durP2;ratioP2;P2;SDS_P1;SDS_P2;PMS_P1;PMS_P2;Temp;Humidity;BMP_temperature;BMP_pressure;BME280_temperature;BME280_humidity;BME280_pressure;Samples;Min_cycle;Max_cycle;Signal;HPM_P1;HPM_P2
2022/12/09 00:01:09;;;;;;;11.60;6.70;;;;;;;-1.56;83.89;98724.55;102289;1297;62801;-24
2022/12/09 00:03:36;;;;;;;11.20;6.00;;;;;;;-1.81;84.30;98718.66;102058;1298;76387;-24
2022/12/09 00:06:13;;;;;;;11.80;6.30;;;;;;;-1.85;84.87;98709.60;102283;1299;76542;-24
2022/12/09 00:08:40;;;;;;;7.60;4.70;;;;;;;-1.34;84.33;98710.78;102018;1299;74380;-26
2022/12/09 00:11:08;;;;;;;14.40;7.10;;;;;;;-1.21;83.02;98710.14;102305;1298;61069;-26
2022/12/09 00:13:35;;;;;;;9.00;5.70;;;;;;;-1.40;82.79;98710.86;102202;1301;61707;-26
2022/12/09 00:16:11;;;;;;;14.20;7.40;;;;;;;-1.63;83.39;98724.63;102142;1301;76290;-27
2022/12/09 00:18:38;;;;;;;15.10;6.80;;;;;;;-1.87;83.84;98729.77;102090;1303;75517;-26
2022/12/09 00:21:29;;;;;;;10.90;5.80;;;;;;;-2.06;84.96;98730.57;102291;1302;75364;-26
2022/12/09 00:23:57;;;;;;;18.60;7.70;;;;;;;-1.55;84.35;98732.68;102150;1299;61177;-24
2022/12/09 00:26:25;;;;;;;21.40;10.70;;;;;;;-1.34;83.73;98727.67;102029;1297;61814;-23
2022/12/09 00:28:52;;;;;;;9.10;5.70;;;;;;;-1.45;83.00;98726.36;102213;1299;76419;-23
2022/12/09 00:31:24;;;;;;;12.30;7.10;;;;;;;-1.73;83.10;98731.80;102290;1298;76728;-23
2022/12/09 00:33:53;;;;;;;8.60;4.20;;;;;;;-2.03;83.67;98721.45;102149;1302;74911;-23
2022/12/09 00:36:20;;;;;;;9.80;5.60;;;;;;;-2.15;84.01;98718.31;102113;1298;61383;-23
2022/12/09 00:38:48;;;;;;;12.70;6.60;;;;;;;-1.64;83.55;98711.55;102320;1291;61951;-23
2022/12/09 00:41:15;;;;;;;13.20;5.20;;;;;;;-1.36;82.59;98707.81;102047;1303;76312;-23
2022/12/09 00:43:44;;;;;;;10.80;6.20;;;;;;;-1.48;81.85;98705.02;102413;1302;76391;-23
2022/12/09 00:46:11;;;;;;;10.40;6.60;;;;;;;-1.79;82.31;98701.23;102328;1296;75095;-23
2022/12/09 00:48:39;;;;;;;8.00;5.20;;;;;;;-2.13;82.98;98701.57;102203;1298;61164;-23
2022/12/09 00:51:07;;;;;;;6.50;4.40;;;;;;;-2.43;83.88;98696.31;102356;1302;63186;-23
2022/12/09 00:53:34;;;;;;;10.90;5.50;;;;;;;-2.30;84.12;98690.41;102206;1299;76336;-23
2022/12/09 00:56:01;;;;;;;9.10;5.70;;;;;;;-2.00;83.37;98685.61;102341;1298;76700;-23
2022/12/09 00:58:28;;;;;;;6.70;4.30;;;;;;;-2.17;82.42;98680.45;102285;1295;74278;-24
2022/12/09 01:00:56;;;;;;;6.10;3.50;;;;;;;-2.52;82.83;98673.64;102322;1298;61170;-23
2022/12/09 01:03:23;;;;;;;8.30;4.90;;;;;;;-2.79;83.62;98679.13;102182;1301;62907;-23
2022/12/09 01:05:50;;;;;;;6.70;4.30;;;;;;;-3.02;84.40;98685.98;102309;1295;76249;-23
2022/12/09 01:08:18;;;;;;;5.30;3.50;;;;;;;-2.86;84.23;98682.08;102323;1297;76613;-24
2022/12/09 01:10:45;;;;;;;4.10;2.80;;;;;;;-2.53;82.82;98683.53;102411;1302;74924;-24
2022/12/09 01:13:12;;;;;;;5.50;3.20;;;;;;;-2.51;81.92;98682.30;102278;1295;62054;-25
2022/12/09 01:15:39;;;;;;;8.00;4.20;;;;;;;-2.72;82.12;98679.77;102351;1297;62568;-24
2022/12/09 01:18:06;;;;;;;6.90;3.60;;;;;;;-3.02;83.01;98675.27;102159;1303;75357;-24
2022/12/09 01:20:34;;;;;;;7.00;4.30;;;;;;;-3.32;83.38;98673.67;102359;1297;76734;-24
2022/12/09 01:23:01;;;;;;;6.80;3.60;;;;;;;-3.15;84.22;98676.00;102090;1308;75239;-24
2022/12/09 01:25:28;;;;;;;5.10;3.40;;;;;;;-2.68;83.27;98682.52;102342;1299;61129;-24
2022/12/09 01:27:55;;;;;;;5.30;3.50;;;;;;;-2.62;82.92;98684.33;102159;1294;62665;-24
2022/12/09 01:30:22;;;;;;;6.30;3.70;;;;;;;-2.80;82.56;98690.55;102334;1302;76162;-24
2022/12/09 01:32:49;;;;;;;5.20;3.30;;;;;;;-3.06;83.19;98704.10;102347;1298;76465;-24
2022/12/09 01:35:17;;;;;;;8.10;4.00;;;;;;;-3.33;84.32;98702.71;102335;1297;75211;-24
2022/12/09 01:37:44;;;;;;;5.60;4.10;;;;;;;-3.41;84.83;98704.65;102176;1302;62734;-24
2022/12/09 01:40:15;;;;;;;7.90;5.10;;;;;;;-2.88;84.30;98707.79;102314;1297;61181;-25
2022/12/09 01:42:43;;;;;;;7.70;4.00;;;;;;;-2.64;83.04;98704.29;102306;1294;76310;-24
2022/12/09 01:45:19;;;;;;;7.90;4.50;;;;;;;-2.75;82.44;98704.34;102384;1291;76712;-24
2022/12/09 01:47:55;;;;;;;2.90;2.50;;;;;;;-3.00;83.05;98701.54;102152;1303;74924;-24
2022/12/09 01:50:23;;;;;;;5.00;3.00;;;;;;;-3.31;83.66;98694.84;102075;1303;61238;-24
2022/12/09 01:52:50;;;;;;;6.50;3.70;;;;;;;-3.36;84.40;98697.20;102107;1305;61184;-24
2022/12/09 01:55:17;;;;;;;5.60;3.70;;;;;;;-2.83;83.51;98689.80;102016;1300;76123;-24
2022/12/09 01:57:45;;;;;;;4.70;3.30;;;;;;;-2.72;82.16;98692.32;102036;1302;76693;-24
2022/12/09 02:00:13;;;;;;;9.10;4.60;;;;;;;-2.94;82.41;98696.06;102155;1298;75222;-24
2022/12/09 02:02:44;;;;;;;7.00;4.00;;;;;;;-3.18;82.80;98693.96;102140;1303;61863;-24
2022/12/09 02:05:11;;;;;;;3.50;2.30;;;;;;;-3.43;83.56;98687.90;102122;1300;62774;-24
2022/12/09 02:07:40;;;;;;;7.30;4.20;;;;;;;-3.62;84.10;98682.20;102196;1302;75135;-24
2022/12/09 02:10:14;;;;;;;5.00;3.10;;;;;;;-3.43;84.49;98673.30;102348;1299;76594;-24
2022/12/09 02:12:52;;;;;;;4.90;3.50;;;;;;;-2.64;83.30;98664.54;101900;1305;73119;-24
2022/12/09 02:15:24;;;;;;;5.40;3.50;;;;;;;-2.52;81.32;98660.38;102053;1308;61740;-24
2022/12/09 02:18:21;;;;;;;4.40;2.40;;;;;;;-2.69;81.47;98665.05;102195;1308;62999;-24
2022/12/09 02:21:03;;;;;;;6.20;3.80;;;;;;;-3.04;81.93;98658.52;102245;1299;76419;-24
2022/12/09 02:23:38;;;;;;;7.50;4.30;;;;;;;-3.32;82.48;98658.38;102208;1298;76737;-24
2022/12/09 02:26:35;;;;;;;4.30;2.90;;;;;;;-3.59;83.27;98652.75;102208;1301;75259;-24
2022/12/09 02:29:21;;;;;;;4.70;3.10;;;;;;;-3.20;83.27;98652.91;102181;1302;61095;-24
2022/12/09 02:32:24;;;;;;;5.30;3.30;;;;;;;-2.80;82.07;98647.40;102333;1301;61952;-24
2022/12/09 02:35:17;;;;;;;8.20;5.00;;;;;;;-2.88;81.76;98651.55;102306;1298;76291;-24
2022/12/09 02:37:51;;;;;;;9.40;5.70;;;;;;;-3.16;81.89;98646.67;102212;1302;76724;-24
2022/12/09 02:40:29;;;;;;;7.70;4.30;;;;;;;-3.41;82.44;98640.16;102184;1302;73389;-24
2022/12/09 02:42:56;;;;;;;6.50;3.70;;;;;;;-3.67;83.05;98634.14;102084;1301;61456;-24
2022/12/09 02:45:24;;;;;;;4.80;2.70;;;;;;;-3.35;83.17;98632.30;102332;1298;61939;-24
2022/12/09 02:47:51;;;;;;;6.20;3.80;;;;;;;-2.83;81.94;98633.23;102104;1299;76444;-24
2022/12/09 02:50:24;;;;;;;6.90;3.90;;;;;;;-2.75;81.18;98637.71;102270;1300;76108;-24
2022/12/09 02:52:52;;;;;;;5.60;3.30;;;;;;;-2.96;80.91;98644.15;102002;1303;74973;-26
2022/12/09 02:55:19;;;;;;;6.10;3.10;;;;;;;-3.21;81.41;98646.52;102071;1299;61303;-26
2022/12/09 02:57:49;;;;;;;12.20;6.90;;;;;;;-3.49;81.85;98642.44;102108;1300;63097;-26
2022/12/09 03:00:19;;;;;;;9.90;4.20;;;;;;;-3.77;82.51;98634.11;101957;1299;74703;-27
2022/12/09 03:02:47;;;;;;;7.10;4.40;;;;;;;-3.82;83.34;98630.67;102106;1302;75547;-26
2022/12/09 03:05:24;;;;;;;5.30;3.40;;;;;;;-3.18;83.08;98626.36;102201;1297;75156;-26
2022/12/09 03:08:07;;;;;;;11.80;6.00;;;;;;;-2.84;81.82;98623.56;102075;1300;61197;-23
2022/12/09 03:11:00;;;;;;;9.40;4.80;;;;;;;-2.90;81.49;98620.52;102116;1295;61573;-23
2022/12/09 03:13:27;;;;;;;;;;;;;;;-3.15;81.42;98621.15;102388;1298;75510;-23
2022/12/09 03:16:00;;;;;;;7.30;4.10;;;;;;;-3.42;81.87;98622.86;101990;1301;76619;-23
2022/12/09 03:18:28;;;;;;;;;;;;;;;-3.67;82.37;98613.95;102055;1298;74086;-23
2022/12/09 03:20:55;;;;;;;9.30;5.50;;;;;;;-3.77;83.17;98611.35;102280;1302;62651;-23
2022/12/09 03:23:23;;;;;;;8.00;4.40;;;;;;;-3.16;82.81;98612.52;102222;1299;63199;-23
2022/12/09 03:25:51;;;;;;;8.50;4.80;;;;;;;-2.84;81.51;98616.23;102224;1301;75046;-23
2022/12/09 03:28:36;;;;;;;11.70;5.10;;;;;;;-2.92;81.08;98616.68;102143;1292;76520;-23
2022/12/09 03:31:04;;;;;;;11.40;5.80;;;;;;;-3.15;81.22;98613.52;102091;1303;75155;-23
2022/12/09 03:33:32;;;;;;;8.40;5.00;;;;;;;-3.41;81.85;98610.26;102166;1299;61710;-23
2022/12/09 03:36:01;;;;;;;13.60;6.00;;;;;;;-3.62;82.56;98606.85;102325;1298;62511;-23
2022/12/09 03:38:31;;;;;;;5.10;3.30;;;;;;;-3.78;82.96;98601.55;102175;1299;76532;-23
2022/12/09 03:41:09;;;;;;;13.60;6.30;;;;;;;-3.30;83.07;98603.98;101999;1292;76596;-24
2022/12/09 03:43:39;;;;;;;14.70;6.50;;;;;;;-2.86;81.66;98605.45;102345;1295;75335;-23
2022/12/09 03:46:06;;;;;;;8.50;5.20;;;;;;;-2.93;81.08;98609.40;102054;1298;61123;-23
2022/12/09 03:48:33;;;;;;;7.50;4.30;;;;;;;-3.12;81.34;98605.80;102300;1297;62646;-23
2022/12/09 03:51:05;;;;;;;11.40;6.20;;;;;;;-3.33;81.93;98596.79;102259;1297;73995;-23
2022/12/09 03:53:38;;;;;;;4.80;3.80;;;;;;;-3.58;82.36;98593.83;102223;1296;76630;-23
2022/12/09 03:56:11;;;;;;;8.50;4.30;;;;;;;-3.67;83.30;98585.60;102102;1302;73932;-23
2022/12/09 03:58:39;;;;;;;9.90;5.10;;;;;;;-3.16;82.60;98573.14;102141;1301;61903;-23
2022/12/09 04:01:06;;;;;;;9.70;4.50;;;;;;;-3.02;81.76;98578.61;102079;1293;62777;-23
2022/12/09 04:03:33;;;;;;;9.40;5.50;;;;;;;-3.14;81.52;98579.36;102208;1296;76096;-23
2022/12/09 04:06:01;;;;;;;10.50;5.90;;;;;;;-3.34;81.67;98576.10;102430;1294;76716;-23
2022/12/09 04:08:29;;;;;;;7.00;3.70;;;;;;;-3.55;82.21;98574.23;102174;1298;74200;-23
2022/12/09 04:10:56;;;;;;;8.90;4.80;;;;;;;-3.73;82.92;98567.14;102333;1299;62766;-23
2022/12/09 04:13:23;;;;;;;13.20;7.00;;;;;;;-3.34;82.85;98561.84;102168;1296;61810;-23
2022/12/09 04:15:50;;;;;;;13.00;6.80;;;;;;;-2.99;81.88;98556.95;102326;1299;76599;-23
2022/12/09 04:18:17;;;;;;;10.60;5.60;;;;;;;-3.03;81.39;98550.81;102261;1299;76897;-23
2022/12/09 04:20:44;;;;;;;7.70;4.50;;;;;;;-3.22;81.35;98553.48;102305;1305;75064;-23
2022/12/09 04:23:11;;;;;;;7.20;3.60;;;;;;;-3.47;81.69;98553.11;102231;1302;62109;-23
2022/12/09 04:25:39;;;;;;;3.70;2.50;;;;;;;-3.68;82.23;98559.52;102062;1299;61820;-23
2022/12/09 04:28:06;;;;;;;8.30;4.30;;;;;;;-3.75;82.97;98569.92;102328;1298;75129;-23
2022/12/09 04:30:33;;;;;;;9.90;5.80;;;;;;;-3.11;83.02;98570.77;102294;1302;76471;-23
2022/12/09 04:33:00;;;;;;;14.20;7.00;;;;;;;-2.67;81.89;98575.92;102319;1302;75199;-23
2022/12/09 04:35:28;;;;;;;8.40;4.70;;;;;;;-2.61;81.44;98585.90;102161;1299;61101;-23
2022/12/09 04:37:54;;;;;;;13.60;6.30;;;;;;;-2.78;81.29;98585.45;102204;1301;61471;-23
2022/12/09 04:40:21;;;;;;;10.20;5.20;;;;;;;-3.03;81.01;98581.56;102226;1301;75344;-23
2022/12/09 04:42:50;;;;;;;12.50;5.80;;;;;;;-3.29;81.32;98577.80;102208;1297;76681;-23
2022/12/09 04:45:17;;;;;;;12.20;7.10;;;;;;;-3.54;81.88;98584.20;102130;1301;75174;-23
2022/12/09 04:47:44;;;;;;;8.50;4.70;;;;;;;-3.73;82.35;98591.05;102095;1303;61161;-23
2022/12/09 04:50:12;;;;;;;9.40;5.40;;;;;;;-3.57;82.97;98591.08;102142;1301;61527;-23
2022/12/09 04:52:40;;;;;;;11.40;5.60;;;;;;;-2.90;82.17;98592.00;102176;1298;76444;-23
2022/12/09 04:55:08;;;;;;;7.40;4.50;;;;;;;-2.66;80.85;98591.86;101980;1304;74863;-23
2022/12/09 04:57:35;;;;;;;9.80;4.90;;;;;;;-2.77;80.62;98595.80;101946;1304;75255;-23
2022/12/09 05:00:03;;;;;;;11.10;5.70;;;;;;;-3.02;80.76;98605.29;102213;1302;61155;-23
2022/12/09 05:02:31;;;;;;;9.60;5.30;;;;;;;-3.25;81.18;98600.94;102130;1302;61529;-23
2022/12/09 05:05:02;;;;;;;10.20;5.60;;;;;;;-3.44;81.67;98597.98;102213;1301;76483;-23
2022/12/09 05:07:32;;;;;;;14.70;6.80;;;;;;;-3.63;82.06;98594.81;102179;1300;76914;-23
2022/12/09 05:10:00;;;;;;;11.60;6.20;;;;;;;-3.76;82.42;98592.33;102215;1301;75003;-23
2022/12/09 05:12:27;;;;;;;8.20;4.10;;;;;;;-3.86;82.59;98590.60;102082;1302;64155;-25
2022/12/09 05:14:54;;;;;;;7.90;4.40;;;;;;;-3.37;82.88;98596.89;102165;1301;61646;-25
2022/12/09 05:17:22;;;;;;;15.90;7.10;;;;;;;-2.57;82.08;98595.48;102200;1301;76263;-26
2022/12/09 05:19:49;;;;;;;11.30;6.80;;;;;;;-2.36;80.86;98597.30;102169;1300;76535;-23
2022/12/09 05:22:17;;;;;;;14.50;8.60;;;;;;;-2.46;80.74;98593.38;102337;1298;75175;-23
2022/12/09 05:24:45;;;;;;;12.20;7.20;;;;;;;-2.70;80.55;98586.89;102107;1294;61206;-23
2022/12/09 05:27:13;;;;;;;9.70;5.30;;;;;;;-2.96;80.61;98585.55;102220;1297;61316;-24
2022/12/09 05:29:40;;;;;;;11.50;6.40;;;;;;;-3.20;81.24;98580.08;102163;1294;76548;-26
2022/12/09 05:32:07;;;;;;;16.70;7.90;;;;;;;-3.46;81.55;98576.98;101931;1302;75876;-23
2022/12/09 05:34:35;;;;;;;13.50;6.30;;;;;;;-3.62;82.07;98581.23;102180;1301;75111;-26
2022/12/09 05:37:02;;;;;;;11.40;6.00;;;;;;;-3.47;82.61;98574.98;102319;1298;62422;-27
2022/12/09 05:39:29;;;;;;;10.70;5.30;;;;;;;-2.63;81.72;98569.80;102358;1299;61857;-25
2022/12/09 05:41:56;;;;;;;13.50;6.90;;;;;;;-2.22;80.24;98572.13;102284;1298;76376;-26
2022/12/09 05:44:24;;;;;;;12.00;6.10;;;;;;;-2.30;79.53;98567.65;102367;1299;76477;-27
2022/12/09 05:46:51;;;;;;;14.70;7.40;;;;;;;-2.56;79.87;98568.08;102345;1298;75168;-27
2022/12/09 05:49:18;;;;;;;12.50;7.00;;;;;;;-2.85;80.27;98569.06;102310;1298;61993;-24
2022/12/09 05:51:46;;;;;;;15.10;7.80;;;;;;;-3.09;80.82;98571.05;102341;1291;61786;-24
2022/12/09 05:54:13;;;;;;;16.10;8.60;;;;;;;-3.31;81.40;98567.20;102320;1292;76377;-24
2022/12/09 05:56:40;;;;;;;14.00;7.60;;;;;;;-3.56;82.42;98570.84;102234;1299;76671;-24
2022/12/09 05:59:13;;;;;;;;;;;;;;;-3.66;83.00;98568.11;102206;1302;75341;-24
2022/12/09 06:01:40;;;;;;;12.10;6.60;;;;;;;-3.27;83.17;98567.05;102185;1293;62847;-24
2022/12/09 06:04:07;;;;;;;11.80;6.80;;;;;;;-2.55;81.77;98568.01;102274;1302;62714;-24
2022/12/09 06:06:35;;;;;;;8.20;3.70;;;;;;;-2.32;80.72;98574.00;102263;1294;76322;-24
2022/12/09 06:09:02;;;;;;;16.10;9.40;;;;;;;-2.42;80.30;98580.52;102239;1299;76573;-24
2022/12/09 06:11:31;;;;;;;16.60;8.30;;;;;;;-2.68;80.54;98579.86;102291;1295;75388;-24
2022/12/09 06:13:59;;;;;;;13.60;8.00;;;;;;;-2.90;81.26;98587.42;102327;1299;61119;-24
2022/12/09 06:16:26;;;;;;;17.40;9.20;;;;;;;-3.08;81.63;98589.35;102139;1294;62760;-24
2022/12/09 06:18:54;;;;;;;16.40;8.20;;;;;;;-3.26;81.99;98599.25;102315;1299;76340;-24
2022/12/09 06:21:21;;;;;;;8.60;5.60;;;;;;;-3.27;82.65;98603.38;102276;1299;75767;-24
2022/12/09 06:23:49;;;;;;;13.20;6.70;;;;;;;-2.51;82.23;98603.24;102387;1294;74933;-24
2022/12/09 06:26:24;;;;;;;13.50;7.30;;;;;;;-1.93;81.18;98600.50;102324;1293;61740;-24
2022/12/09 06:28:52;;;;;;;4.00;3.00;;;;;;;-1.92;79.74;98602.83;102097;1302;62662;-24
2022/12/09 06:31:20;;;;;;;16.00;8.60;;;;;;;-2.14;79.43;98594.77;102079;1295;75037;-24
2022/12/09 06:33:48;;;;;;;13.20;7.40;;;;;;;-2.39;79.68;98600.26;102054;1301;76816;-25
2022/12/09 06:36:26;;;;;;;11.60;6.70;;;;;;;-2.63;80.15;98596.16;102314;1297;75159;-24
2022/12/09 06:38:53;;;;;;;11.00;6.20;;;;;;;-2.85;81.00;98593.52;102098;1299;62021;-24
2022/12/09 06:41:21;;;;;;;8.60;5.60;;;;;;;-2.71;81.55;98593.36;102315;1299;62746;-24
2022/12/09 06:43:48;;;;;;;10.80;5.50;;;;;;;-1.96;80.52;98592.09;102340;1302;76323;-24
2022/12/09 06:46:18;;;;;;;7.80;5.30;;;;;;;-1.66;79.53;98586.16;102377;1292;76752;-24
2022/12/09 06:48:45;;;;;;;14.60;8.40;;;;;;;-1.77;78.96;98578.94;102161;1292;74055;-24
2022/12/09 06:51:14;;;;;;;7.60;5.00;;;;;;;-2.04;78.99;98570.24;102221;1302;61829;-24
2022/12/09 06:53:42;;;;;;;12.80;6.80;;;;;;;-2.32;79.52;98567.73;102178;1299;62771;-24
2022/12/09 06:56:10;;;;;;;12.30;7.20;;;;;;;-2.58;80.73;98562.69;102100;1298;76360;-24
2022/12/09 06:58:40;;;;;;;14.60;6.10;;;;;;;-2.77;81.47;98566.59;102002;1299;76721;-24
2022/12/09 07:01:14;;;;;;;12.90;6.80;;;;;;;-2.51;81.99;98559.73;102054;1294;74992;-24
2022/12/09 07:03:43;;;;;;;12.40;7.00;;;;;;;-1.90;80.79;98563.27;101962;1298;61148;-24
2022/12/09 07:06:30;;;;;;;13.90;7.40;;;;;;;-1.76;79.95;98567.18;102143;1299;62930;-24
2022/12/09 07:09:00;;;;;;;15.40;7.60;;;;;;;-1.86;80.05;98570.11;102361;1294;76408;-24
2022/12/09 07:11:27;;;;;;;11.80;5.40;;;;;;;-2.05;80.24;98572.17;102102;1302;76812;-24
2022/12/09 07:13:55;;;;;;;13.10;7.80;;;;;;;-2.24;80.58;98575.77;102331;1297;75264;-24
2022/12/09 07:16:22;;;;;;;8.80;4.90;;;;;;;-2.41;81.34;98575.34;102080;1301;61947;-24
2022/12/09 07:18:50;;;;;;;10.50;5.40;;;;;;;-2.45;81.92;98574.98;102183;1295;62992;-24
2022/12/09 07:21:19;;;;;;;12.20;6.60;;;;;;;-1.80;81.73;98576.34;102351;1298;76470;-24
2022/12/09 07:23:46;;;;;;;14.70;8.50;;;;;;;-1.26;80.51;98570.15;102071;1299;77240;-24
2022/12/09 07:26:15;;;;;;;13.60;7.00;;;;;;;-1.24;79.73;98567.85;102346;1299;73114;-24
2022/12/09 07:28:43;;;;;;;12.50;5.40;;;;;;;-1.41;79.56;98565.27;102191;1291;62093;-24
2022/12/09 07:31:21;;;;;;;13.20;6.40;;;;;;;-1.68;80.01;98565.67;102349;1299;61678;-24
2022/12/09 07:33:49;;;;;;;16.60;8.70;;;;;;;-1.95;80.48;98565.48;102227;1292;75365;-24
2022/12/09 07:36:17;;;;;;;14.00;8.10;;;;;;;-2.16;81.51;98566.63;102176;1299;76551;-24
2022/12/09 07:38:48;;;;;;;12.10;5.30;;;;;;;-2.23;82.35;98564.16;102184;1289;75239;-24
2022/12/09 07:41:18;;;;;;;13.00;6.90;;;;;;;-1.62;82.33;98559.29;102217;1301;62058;-24
2022/12/09 07:43:46;;;;;;;12.80;7.40;;;;;;;-1.11;80.78;98560.16;102290;1297;61938;-24
2022/12/09 07:46:15;;;;;;;10.90;6.50;;;;;;;-1.05;80.06;98557.17;102381;1299;75091;-24
2022/12/09 07:48:42;;;;;;;13.30;7.30;;;;;;;-1.21;80.17;98557.49;102183;1299;76916;-24
2022/12/09 07:51:10;;;;;;;14.20;8.70;;;;;;;-1.41;80.73;98555.27;102324;1294;74885;-24
2022/12/09 07:53:37;;;;;;;15.20;8.70;;;;;;;-1.58;81.22;98547.91;102303;1302;61824;-24
2022/12/09 07:56:06;;;;;;;12.80;6.40;;;;;;;-1.70;81.72;98544.83;102342;1299;61587;-24
2022/12/09 07:58:34;;;;;;;14.80;7.50;;;;;;;-1.26;82.00;98543.22;102291;1299;76124;-24
2022/12/09 08:01:08;;;;;;;15.80;8.30;;;;;;;-0.64;80.70;98546.75;102349;1294;76638;-24
2022/12/09 08:03:36;;;;;;;18.90;8.70;;;;;;;-0.48;79.71;98545.74;102327;1301;75077;-24
2022/12/09 08:06:03;;;;;;;14.40;7.20;;;;;;;-0.53;79.52;98546.83;102306;1299;61820;-24
2022/12/09 08:08:31;;;;;;;13.70;7.40;;;;;;;-0.69;79.34;98544.93;102388;1297;61872;-24
2022/12/09 08:11:10;;;;;;;13.10;7.00;;;;;;;-0.83;79.69;98541.25;102333;1291;74203;-24
2022/12/09 08:13:37;;;;;;;14.20;7.80;;;;;;;-0.97;79.81;98539.63;102012;1303;76540;-24
2022/12/09 08:16:06;;;;;;;22.70;7.80;;;;;;;-0.99;80.43;98530.20;102236;1300;75121;-24
2022/12/09 08:18:33;;;;;;;17.40;8.10;;;;;;;-0.41;79.92;98527.18;102037;1299;61876;-24
2022/12/09 08:21:18;;;;;;;15.60;7.80;;;;;;;0.12;78.91;98521.02;102319;1302;61515;-24
2022/12/09 08:23:45;;;;;;;15.10;7.40;;;;;;;0.17;77.83;98521.15;102333;1292;76351;-24
2022/12/09 08:26:14;;;;;;;15.40;7.60;;;;;;;0.07;77.76;98511.16;102185;1294;77066;-24
2022/12/09 08:28:41;;;;;;;16.70;8.40;;;;;;;-0.04;78.10;98510.48;102171;1299;75179;-24
2022/12/09 08:31:11;;;;;;;18.90;8.30;;;;;;;-0.19;78.19;98510.65;102250;1294;61151;-24
2022/12/09 08:33:38;;;;;;;17.90;8.50;;;;;;;-0.32;78.55;98518.23;102161;1286;62059;-24
2022/12/09 08:36:12;;;;;;;16.00;7.40;;;;;;;-0.18;79.01;98518.13;102173;1302;75334;-24
2022/12/09 08:38:40;;;;;;;20.70;8.20;;;;;;;0.59;77.68;98510.95;101946;1301;75563;-24
2022/12/09 08:41:15;;;;;;;22.80;11.50;;;;;;;0.85;76.12;98504.71;102239;1301;74959;-24
2022/12/09 08:43:43;;;;;;;17.90;8.50;;;;;;;0.73;75.55;98499.48;102093;1301;63001;-24
2022/12/09 08:46:10;;;;;;;16.70;8.10;;;;;;;0.47;75.83;98496.30;102237;1299;61914;-24
2022/12/09 08:48:38;;;;;;;22.10;9.70;;;;;;;0.29;76.57;98496.14;102221;1294;76409;-24
2022/12/09 08:51:07;;;;;;;26.00;13.40;;;;;;;0.09;77.11;98492.64;102135;1301;76785;-24
2022/12/09 08:53:34;;;;;;;27.40;12.50;;;;;;;-0.07;77.71;98496.98;101949;1297;73219;-24
2022/12/09 08:56:13;;;;;;;28.30;14.30;;;;;;;0.07;78.12;98493.27;102229;1301;62362;-25
2022/12/09 08:58:41;;;;;;;21.20;11.30;;;;;;;0.81;77.18;98491.36;102109;1302;62816;-25
2022/12/09 09:01:33;;;;;;;18.60;9.20;;;;;;;1.07;75.61;98487.18;102282;1294;75092;-25
2022/12/09 09:04:10;;;;;;;27.10;14.20;;;;;;;0.92;75.10;98483.00;102092;1302;76688;-25
2022/12/09 09:06:39;;;;;;;24.70;13.00;;;;;;;0.73;75.55;98479.69;101952;1295;74033;-25
2022/12/09 09:09:08;;;;;;;35.00;16.80;;;;;;;0.50;75.92;98477.39;102011;1301;61210;-25
2022/12/09 09:11:35;;;;;;;17.60;8.90;;;;;;;0.30;76.93;98467.09;101934;1297;61607;-25
2022/12/09 09:14:04;;;;;;;18.20;8.90;;;;;;;0.29;77.49;98464.38;102070;1293;75844;-24
2022/12/09 09:16:31;;;;;;;20.60;10.10;;;;;;;0.92;77.04;98463.31;102091;1297;76619;-25
2022/12/09 09:18:59;;;;;;;23.60;10.10;;;;;;;1.28;75.98;98456.35;102175;1302;74878;-25
2022/12/09 09:21:27;;;;;;;25.70;11.20;;;;;;;1.22;75.20;98449.64;102163;1301;62834;-25
2022/12/09 09:23:54;;;;;;;20.00;10.40;;;;;;;1.07;75.37;98443.95;102099;1303;62956;-25
2022/12/09 09:26:24;;;;;;;23.20;10.50;;;;;;;0.91;75.73;98438.59;102212;1301;76264;-25
2022/12/09 09:28:52;;;;;;;19.70;10.10;;;;;;;0.79;76.17;98437.66;101944;1303;74672;-25
2022/12/09 09:31:21;;;;;;;20.50;9.90;;;;;;;0.64;76.68;98442.34;101971;1297;75400;-25
2022/12/09 09:33:49;;;;;;;9.30;5.70;;;;;;;0.79;77.22;98437.83;102150;1301;62729;-25
2022/12/09 09:36:19;;;;;;;9.70;5.70;;;;;;;1.43;75.92;98428.70;102384;1292;62723;-25
2022/12/09 09:38:47;;;;;;;15.80;8.20;;;;;;;1.70;74.48;98423.33;102188;1301;75381;-25
2022/12/09 09:41:19;;;;;;;15.30;7.90;;;;;;;1.65;74.49;98426.02;102208;1294;76821;-25
2022/12/09 09:43:46;;;;;;;18.00;9.80;;;;;;;1.49;74.78;98433.16;102336;1302;73606;-25
2022/12/09 09:46:18;;;;;;;13.90;8.20;;;;;;;1.35;75.35;98427.41;102130;1288;62536;-25
2022/12/09 09:48:45;;;;;;;18.60;8.90;;;;;;;1.17;75.73;98424.09;102136;1292;61789;-25
2022/12/09 09:51:15;;;;;;;20.10;9.20;;;;;;;0.97;76.54;98423.60;102192;1302;76230;-25
2022/12/09 09:53:42;;;;;;;24.40;10.80;;;;;;;1.01;77.15;98409.71;102075;1292;77244;-25
2022/12/09 09:56:30;;;;;;;19.80;9.80;;;;;;;1.56;76.30;98403.72;102191;1294;75453;-25
2022/12/09 09:59:24;;;;;;;18.40;11.20;;;;;;;1.81;74.95;98396.36;102318;1299;62803;-25
2022/12/09 10:02:07;;;;;;;21.40;10.90;;;;;;;1.62;74.98;98392.80;102177;1299;62673;-25
2022/12/09 10:04:44;;;;;;;23.90;11.20;;;;;;;1.36;75.91;98384.98;102167;1294;76353;-25
2022/12/09 10:07:32;;;;;;;24.50;11.50;;;;;;;1.18;76.67;98385.25;102177;1294;76873;-25
2022/12/09 10:10:18;;;;;;;27.90;14.50;;;;;;;1.03;77.30;98383.09;101939;1301;75030;-25
2022/12/09 10:12:52;;;;;;;9.20;5.00;;;;;;;1.12;77.65;98386.21;102317;1292;63568;-25
2022/12/09 10:15:30;;;;;;;15.70;8.00;;;;;;;1.75;76.55;98389.68;102132;1299;61762;-25
2022/12/09 10:18:18;;;;;;;21.00;9.10;;;;;;;2.04;75.58;98388.05;102203;1295;75135;-25
2022/12/09 10:20:45;;;;;;;17.70;8.90;;;;;;;2.00;75.17;98391.38;102209;1294;76741;-25
2022/12/09 10:23:14;;;;;;;17.20;8.20;;;;;;;1.82;75.23;98388.43;102283;1299;74006;-25
2022/12/09 10:25:54;;;;;;;20.50;8.80;;;;;;;1.61;75.91;98388.75;102173;1294;61135;-25
2022/12/09 10:28:31;;;;;;;18.50;9.80;;;;;;;1.42;76.55;98389.77;101932;1298;61841;-25
2022/12/09 10:30:59;;;;;;;18.30;7.20;;;;;;;1.36;77.19;98384.63;102133;1295;76442;-25
2022/12/09 10:33:37;;;;;;;14.20;7.50;;;;;;;1.68;77.50;98385.61;102301;1286;76708;-25
2022/12/09 10:36:06;;;;;;;14.00;5.70;;;;;;;2.37;75.83;98386.89;102173;1295;74189;-25
2022/12/09 10:38:35;;;;;;;20.00;8.90;;;;;;;2.46;74.87;98390.27;102095;1298;61024;-25
2022/12/09 10:41:14;;;;;;;16.90;8.70;;;;;;;2.35;74.81;98398.61;102155;1301;61605;-25
2022/12/09 10:43:42;;;;;;;15.60;7.20;;;;;;;2.16;75.27;98403.15;102094;1303;76355;-25
2022/12/09 10:46:22;;;;;;;21.10;9.30;;;;;;;1.92;75.70;98405.83;102291;1299;76347;-25
2022/12/09 10:48:54;;;;;;;18.30;9.70;;;;;;;1.61;76.62;98412.52;101343;1299;1278915;-26
2022/12/09 10:51:30;;;;;;;16.10;7.00;;;;;;;1.20;78.57;98417.96;102181;1301;61866;-25
2022/12/09 10:54:00;;;;;;;16.20;7.80;;;;;;;1.44;79.09;98418.73;102046;1299;61736;-25
2022/12/09 10:56:29;;;;;;;12.10;6.80;;;;;;;2.03;77.00;98413.61;102129;1301;76361;-25
2022/12/09 10:59:12;;;;;;;15.30;8.00;;;;;;;2.16;75.92;98401.28;101951;1299;75665;-25
2022/12/09 11:01:53;;;;;;;18.60;9.10;;;;;;;1.98;75.83;98398.67;101962;1297;73859;-25
2022/12/09 11:04:34;;;;;;;21.70;11.00;;;;;;;1.86;76.23;98386.52;102107;1302;61245;-25
2022/12/09 11:07:03;;;;;;;17.70;10.10;;;;;;;1.70;76.67;98379.38;102203;1299;62191;-25
2022/12/09 11:09:37;;;;;;;17.80;8.00;;;;;;;1.53;76.87;98367.95;102366;1294;76586;-25
2022/12/09 11:12:06;;;;;;;14.60;7.50;;;;;;;1.42;77.59;98356.60;102053;1298;76795;-25
2022/12/09 11:14:40;;;;;;;21.90;11.40;;;;;;;1.94;77.56;98354.56;102159;1302;75249;-25
2022/12/09 11:17:14;;;;;;;21.60;10.70;;;;;;;2.29;76.15;98359.75;102003;1295;61845;-25
2022/12/09 11:19:44;;;;;;;22.70;10.70;;;;;;;2.29;75.78;98358.86;102152;1295;62583;-25
2022/12/09 11:22:38;;;;;;;24.10;11.70;;;;;;;2.11;76.15;98361.32;102005;1299;75899;-25
2022/12/09 11:25:09;;;;;;;22.20;10.90;;;;;;;1.93;76.64;98361.45;102233;1293;75810;-24
2022/12/09 11:27:48;;;;;;;23.20;12.00;;;;;;;1.74;77.15;98362.84;102181;1296;75170;-25
2022/12/09 11:30:17;;;;;;;17.80;8.60;;;;;;;1.60;77.92;98358.15;101943;1302;62604;-25
2022/12/09 11:32:59;;;;;;;20.40;9.50;;;;;;;1.89;78.11;98347.32;102387;1299;62554;-25
2022/12/09 11:35:43;;;;;;;25.40;12.20;;;;;;;2.19;77.06;98348.33;101997;1304;76127;-25
2022/12/09 11:38:27;;;;;;;17.30;9.10;;;;;;;2.16;76.86;98347.68;102198;1301;75867;-24